Beaverton, Alabama
Current Conditions -  °F | °C
As of 2:35 AM on Friday 31 Oct 2014 (Local Time) from KM40 Reporting Station
Scattered Clouds Scattered Clouds  
Wind Chill: 48°   Ceiling: Unl
Heat Index: 48°   Visibility: 9mi
Dew Point: 34°   Wind: 0mph
Humidity: 57%   Direction: NA
Pressure: 30.01"   Gusts: NA
Location:  33.93°N, 88.02°W
Report Text: KM40 310735Z AUTO 00000KT 9SM FEW075 SCT110 09/01 A3001 RMK AO2
Loading
Personal Weather Stations






























Interactive Weather Map
Tropical Storm Tracking
New forecast layout! Learn more

10-Day Weather Forecast

Advertisements
Track Severe Weather on mobile